sensor_id;sensor_type;location;lat;lon;timestamp;P1;durP1;ratioP1;P2;durP2;ratioP2
73779;SDS011;62093;37.614;15.072;2022-09-28T00:02:09;5.05;;;2.30;;
73779;SDS011;62093;37.614;15.072;2022-09-28T00:04:35;5.15;;;1.90;;
73779;SDS011;62093;37.614;15.072;2022-09-28T00:07:02;4.43;;;1.88;;
73779;SDS011;62093;37.614;15.072;2022-09-28T00:09:28;4.35;;;1.58;;
73779;SDS011;62093;37.614;15.072;2022-09-28T00:11:54;4.80;;;1.77;;
73779;SDS011;62093;37.614;15.072;2022-09-28T00:14:21;4.00;;;1.83;;
73779;SDS011;62093;37.614;15.072;2022-09-28T00:16:48;5.88;;;2.10;;
73779;SDS011;62093;37.614;15.072;2022-09-28T00:19:14;5.25;;;2.13;;
73779;SDS011;62093;37.614;15.072;2022-09-28T00:21:40;4.43;;;2.10;;
73779;SDS011;62093;37.614;15.072;2022-09-28T00:24:09;5.67;;;2.27;;
73779;SDS011;62093;37.614;15.072;2022-09-28T00:26:51;4.65;;;2.00;;
73779;SDS011;62093;37.614;15.072;2022-09-28T00:29:22;4.90;;;2.08;;
73779;SDS011;62093;37.614;15.072;2022-09-28T00:31:54;4.88;;;2.45;;
73779;SDS011;62093;37.614;15.072;2022-09-28T00:34:27;5.95;;;2.58;;
73779;SDS011;62093;37.614;15.072;2022-09-28T00:36:57;5.90;;;2.53;;
73779;SDS011;62093;37.614;15.072;2022-09-28T00:39:24;5.35;;;2.45;;
73779;SDS011;62093;37.614;15.072;2022-09-28T00:41:52;5.70;;;2.58;;
73779;SDS011;62093;37.614;15.072;2022-09-28T00:49:21;5.47;;;2.40;;
73779;SDS011;62093;37.614;15.072;2022-09-28T00:52:06;4.60;;;1.75;;
73779;SDS011;62093;37.614;15.072;2022-09-28T00:54:37;4.38;;;1.60;;
73779;SDS011;62093;37.614;15.072;2022-09-28T00:57:06;6.07;;;1.90;;
73779;SDS011;62093;37.614;15.072;2022-09-28T00:59:33;3.55;;;1.60;;
73779;SDS011;62093;37.614;15.072;2022-09-28T01:02:00;4.00;;;1.47;;
73779;SDS011;62093;37.614;15.072;2022-09-28T01:04:27;4.65;;;1.45;;
73779;SDS011;62093;37.614;15.072;2022-09-28T01:06:56;4.10;;;1.40;;
73779;SDS011;62093;37.614;15.072;2022-09-28T01:09:24;4.97;;;1.38;;
73779;SDS011;62093;37.614;15.072;2022-09-28T01:11:51;4.65;;;1.60;;
73779;SDS011;62093;37.614;15.072;2022-09-28T01:14:18;4.40;;;1.70;;
73779;SDS011;62093;37.614;15.072;2022-09-28T01:22:25;4.32;;;1.45;;
73779;SDS011;62093;37.614;15.072;2022-09-28T01:27:33;4.10;;;1.60;;
73779;SDS011;62093;37.614;15.072;2022-09-28T01:32:37;3.95;;;1.70;;
73779;SDS011;62093;37.614;15.072;2022-09-28T01:35:25;4.00;;;1.40;;
73779;SDS011;62093;37.614;15.072;2022-09-28T01:38:03;5.90;;;2.20;;
73779;SDS011;62093;37.614;15.072;2022-09-28T01:40:32;4.23;;;1.90;;
73779;SDS011;62093;37.614;15.072;2022-09-28T01:43:14;4.97;;;1.95;;
73779;SDS011;62093;37.614;15.072;2022-09-28T01:45:51;4.70;;;2.15;;
73779;SDS011;62093;37.614;15.072;2022-09-28T01:48:44;4.95;;;2.25;;
73779;SDS011;62093;37.614;15.072;2022-09-28T01:51:22;4.80;;;2.30;;
73779;SDS011;62093;37.614;15.072;2022-09-28T01:54:20;5.40;;;2.07;;
73779;SDS011;62093;37.614;15.072;2022-09-28T01:56:53;5.30;;;2.30;;
73779;SDS011;62093;37.614;15.072;2022-09-28T01:59:38;5.03;;;2.50;;
73779;SDS011;62093;37.614;15.072;2022-09-28T02:02:17;5.85;;;2.13;;
73779;SDS011;62093;37.614;15.072;2022-09-28T02:04:52;6.35;;;2.53;;
73779;SDS011;62093;37.614;15.072;2022-09-28T02:07:24;4.83;;;2.40;;
73779;SDS011;62093;37.614;15.072;2022-09-28T02:10:02;6.15;;;2.50;;
73779;SDS011;62093;37.614;15.072;2022-09-28T02:15:25;7.05;;;3.78;;
73779;SDS011;62093;37.614;15.072;2022-09-28T02:17:58;7.53;;;5.05;;
73779;SDS011;62093;37.614;15.072;2022-09-28T02:20:25;6.13;;;4.20;;
73779;SDS011;62093;37.614;15.072;2022-09-28T02:22:52;6.68;;;3.63;;
73779;SDS011;62093;37.614;15.072;2022-09-28T02:25:29;6.90;;;3.70;;
73779;SDS011;62093;37.614;15.072;2022-09-28T02:28:06;7.03;;;3.00;;
73779;SDS011;62093;37.614;15.072;2022-09-28T02:30:37;5.85;;;3.45;;
73779;SDS011;62093;37.614;15.072;2022-09-28T02:33:14;8.57;;;6.03;;
73779;SDS011;62093;37.614;15.072;2022-09-28T02:35:45;7.72;;;4.68;;
73779;SDS011;62093;37.614;15.072;2022-09-28T02:38:12;6.20;;;3.25;;
73779;SDS011;62093;37.614;15.072;2022-09-28T02:40:39;5.30;;;2.70;;
73779;SDS011;62093;37.614;15.072;2022-09-28T02:54:24;6.45;;;2.75;;
73779;SDS011;62093;37.614;15.072;2022-09-28T02:57:21;6.20;;;2.60;;
73779;SDS011;62093;37.614;15.072;2022-09-28T03:00:14;5.50;;;2.83;;
73779;SDS011;62093;37.614;15.072;2022-09-28T03:03:03;6.32;;;2.53;;
73779;SDS011;62093;37.614;15.072;2022-09-28T03:09:20;4.97;;;3.25;;
73779;SDS011;62093;37.614;15.072;2022-09-28T03:11:30;5.63;;;2.80;;
73779;SDS011;62093;37.614;15.072;2022-09-28T03:14:18;5.00;;;2.60;;
73779;SDS011;62093;37.614;15.072;2022-09-28T03:16:50;7.00;;;2.70;;
73779;SDS011;62093;37.614;15.072;2022-09-28T03:19:16;6.80;;;3.67;;
73779;SDS011;62093;37.614;15.072;2022-09-28T03:21:47;4.90;;;2.65;;
73779;SDS011;62093;37.614;15.072;2022-09-28T03:24:13;9.20;;;5.50;;
73779;SDS011;62093;37.614;15.072;2022-09-28T03:26:39;6.07;;;3.90;;
73779;SDS011;62093;37.614;15.072;2022-09-28T03:29:06;7.00;;;3.05;;
73779;SDS011;62093;37.614;15.072;2022-09-28T03:31:33;5.50;;;2.67;;
73779;SDS011;62093;37.614;15.072;2022-09-28T03:34:00;4.93;;;2.55;;
73779;SDS011;62093;37.614;15.072;2022-09-28T03:36:26;5.55;;;2.70;;
73779;SDS011;62093;37.614;15.072;2022-09-28T03:38:52;6.83;;;2.60;;
73779;SDS011;62093;37.614;15.072;2022-09-28T03:41:22;5.93;;;2.90;;
73779;SDS011;62093;37.614;15.072;2022-09-28T03:43:49;4.70;;;2.47;;
73779;SDS011;62093;37.614;15.072;2022-09-28T03:46:15;6.80;;;3.13;;
73779;SDS011;62093;37.614;15.072;2022-09-28T03:48:47;7.03;;;2.80;;
73779;SDS011;62093;37.614;15.072;2022-09-28T03:51:14;5.20;;;2.70;;
73779;SDS011;62093;37.614;15.072;2022-09-28T03:53:40;5.95;;;3.15;;
73779;SDS011;62093;37.614;15.072;2022-09-28T03:56:08;5.57;;;3.00;;
73779;SDS011;62093;37.614;15.072;2022-09-28T03:58:38;6.15;;;2.60;;
73779;SDS011;62093;37.614;15.072;2022-09-28T04:01:08;6.45;;;2.72;;
73779;SDS011;62093;37.614;15.072;2022-09-28T04:03:44;5.57;;;2.40;;
73779;SDS011;62093;37.614;15.072;2022-09-28T04:06:11;5.32;;;2.65;;
73779;SDS011;62093;37.614;15.072;2022-09-28T04:08:37;5.32;;;3.08;;
73779;SDS011;62093;37.614;15.072;2022-09-28T04:11:04;6.15;;;3.80;;
73779;SDS011;62093;37.614;15.072;2022-09-28T04:13:30;8.60;;;5.15;;
73779;SDS011;62093;37.614;15.072;2022-09-28T04:15:59;6.53;;;3.67;;
73779;SDS011;62093;37.614;15.072;2022-09-28T04:18:28;6.10;;;2.75;;
73779;SDS011;62093;37.614;15.072;2022-09-28T04:21:14;5.65;;;3.53;;
73779;SDS011;62093;37.614;15.072;2022-09-28T04:23:44;5.07;;;2.90;;
73779;SDS011;62093;37.614;15.072;2022-09-28T04:26:23;5.97;;;2.95;;
73779;SDS011;62093;37.614;15.072;2022-09-28T04:28:51;7.27;;;3.23;;
73779;SDS011;62093;37.614;15.072;2022-09-28T04:31:36;6.95;;;2.67;;
73779;SDS011;62093;37.614;15.072;2022-09-28T04:34:31;5.32;;;2.60;;
73779;SDS011;62093;37.614;15.072;2022-09-28T04:36:58;7.25;;;2.92;;
73779;SDS011;62093;37.614;15.072;2022-09-28T04:39:24;5.78;;;2.38;;
73779;SDS011;62093;37.614;15.072;2022-09-28T04:41:52;5.70;;;2.63;;
73779;SDS011;62093;37.614;15.072;2022-09-28T04:44:18;6.18;;;3.08;;
73779;SDS011;62093;37.614;15.072;2022-09-28T04:46:46;5.05;;;2.80;;
73779;SDS011;62093;37.614;15.072;2022-09-28T04:49:44;5.82;;;2.70;;
73779;SDS011;62093;37.614;15.072;2022-09-28T04:52:15;6.43;;;3.07;;
73779;SDS011;62093;37.614;15.072;2022-09-28T04:54:42;6.20;;;2.88;;
73779;SDS011;62093;37.614;15.072;2022-09-28T04:57:08;6.38;;;3.33;;
73779;SDS011;62093;37.614;15.072;2022-09-28T04:59:36;7.70;;;3.63;;
73779;SDS011;62093;37.614;15.072;2022-09-28T05:02:04;5.88;;;3.30;;
73779;SDS011;62093;37.614;15.072;2022-09-28T05:05:02;6.33;;;3.07;;
73779;SDS011;62093;37.614;15.072;2022-09-28T05:07:44;7.80;;;3.03;;
73779;SDS011;62093;37.614;15.072;2022-09-28T05:10:10;5.30;;;2.80;;
73779;SDS011;62093;37.614;15.072;2022-09-28T05:12:38;6.78;;;3.05;;
73779;SDS011;62093;37.614;15.072;2022-09-28T05:15:04;7.35;;;3.72;;
73779;SDS011;62093;37.614;15.072;2022-09-28T05:17:30;7.27;;;2.90;;
73779;SDS011;62093;37.614;15.072;2022-09-28T05:20:09;7.72;;;3.08;;
73779;SDS011;62093;37.614;15.072;2022-09-28T05:22:35;6.55;;;2.88;;
73779;SDS011;62093;37.614;15.072;2022-09-28T05:25:02;6.45;;;2.58;;
73779;SDS011;62093;37.614;15.072;2022-09-28T05:27:35;6.78;;;3.38;;
73779;SDS011;62093;37.614;15.072;2022-09-28T05:30:15;6.20;;;2.50;;
73779;SDS011;62093;37.614;15.072;2022-09-28T05:32:42;5.55;;;2.58;;
73779;SDS011;62093;37.614;15.072;2022-09-28T05:35:25;5.40;;;2.38;;
73779;SDS011;62093;37.614;15.072;2022-09-28T05:37:51;4.95;;;2.55;;
73779;SDS011;62093;37.614;15.072;2022-09-28T05:40:20;7.63;;;2.88;;
73779;SDS011;62093;37.614;15.072;2022-09-28T05:42:47;5.10;;;2.30;;
73779;SDS011;62093;37.614;15.072;2022-09-28T05:45:13;4.75;;;2.63;;
73779;SDS011;62093;37.614;15.072;2022-09-28T05:47:42;6.47;;;3.10;;
73779;SDS011;62093;37.614;15.072;2022-09-28T05:50:12;5.53;;;2.63;;
73779;SDS011;62093;37.614;15.072;2022-09-28T05:52:41;6.10;;;2.80;;
73779;SDS011;62093;37.614;15.072;2022-09-28T05:55:09;6.00;;;2.83;;
73779;SDS011;62093;37.614;15.072;2022-09-28T05:57:35;5.45;;;2.33;;
73779;SDS011;62093;37.614;15.072;2022-09-28T06:00:05;6.38;;;2.75;;
73779;SDS011;62093;37.614;15.072;2022-09-28T06:02:37;5.95;;;2.30;;
73779;SDS011;62093;37.614;15.072;2022-09-28T06:05:05;6.28;;;2.45;;
73779;SDS011;62093;37.614;15.072;2022-09-28T06:07:32;5.57;;;2.53;;
73779;SDS011;62093;37.614;15.072;2022-09-28T06:09:58;6.13;;;2.40;;
73779;SDS011;62093;37.614;15.072;2022-09-28T06:12:41;5.90;;;2.65;;
73779;SDS011;62093;37.614;15.072;2022-09-28T06:15:13;5.45;;;2.50;;
73779;SDS011;62093;37.614;15.072;2022-09-28T06:17:39;5.15;;;2.60;;
73779;SDS011;62093;37.614;15.072;2022-09-28T06:20:35;4.30;;;2.20;;
73779;SDS011;62093;37.614;15.072;2022-09-28T06:23:09;5.70;;;2.38;;
73779;SDS011;62093;37.614;15.072;2022-09-28T06:25:36;5.18;;;2.25;;
73779;SDS011;62093;37.614;15.072;2022-09-28T06:28:07;5.22;;;2.10;;
73779;SDS011;62093;37.614;15.072;2022-09-28T06:30:35;4.93;;;2.05;;
73779;SDS011;62093;37.614;15.072;2022-09-28T06:33:09;4.30;;;2.00;;
73779;SDS011;62093;37.614;15.072;2022-09-28T06:35:40;6.00;;;1.80;;
73779;SDS011;62093;37.614;15.072;2022-09-28T06:38:11;4.40;;;2.05;;
73779;SDS011;62093;37.614;15.072;2022-09-28T06:40:40;4.80;;;1.92;;
73779;SDS011;62093;37.614;15.072;2022-09-28T06:43:13;4.00;;;1.88;;
73779;SDS011;62093;37.614;15.072;2022-09-28T06:46:12;5.10;;;1.90;;
73779;SDS011;62093;37.614;15.072;2022-09-28T06:48:59;6.15;;;1.85;;
73779;SDS011;62093;37.614;15.072;2022-09-28T06:51:56;6.60;;;2.28;;
73779;SDS011;62093;37.614;15.072;2022-09-28T06:54:46;4.88;;;1.65;;
73779;SDS011;62093;37.614;15.072;2022-09-28T06:57:43;4.60;;;1.60;;
73779;SDS011;62093;37.614;15.072;2022-09-28T07:00:27;5.13;;;2.10;;
73779;SDS011;62093;37.614;15.072;2022-09-28T07:03:03;5.35;;;2.00;;
73779;SDS011;62093;37.614;15.072;2022-09-28T07:05:48;4.70;;;1.65;;
73779;SDS011;62093;37.614;15.072;2022-09-28T07:08:41;5.10;;;2.00;;
73779;SDS011;62093;37.614;15.072;2022-09-28T07:11:36;5.43;;;1.98;;
73779;SDS011;62093;37.614;15.072;2022-09-28T07:14:17;4.77;;;1.53;;
73779;SDS011;62093;37.614;15.072;2022-09-28T07:16:46;4.22;;;1.70;;
73779;SDS011;62093;37.614;15.072;2022-09-28T07:19:13;4.85;;;1.80;;
73779;SDS011;62093;37.614;15.072;2022-09-28T07:21:42;5.03;;;1.70;;
73779;SDS011;62093;37.614;15.072;2022-09-28T07:24:08;5.78;;;1.90;;
73779;SDS011;62093;37.614;15.072;2022-09-28T07:26:55;4.30;;;1.90;;
73779;SDS011;62093;37.614;15.072;2022-09-28T07:29:44;3.83;;;1.75;;
73779;SDS011;62093;37.614;15.072;2022-09-28T07:32:32;4.43;;;1.80;;
73779;SDS011;62093;37.614;15.072;2022-09-28T07:35:19;5.00;;;1.80;;
73779;SDS011;62093;37.614;15.072;2022-09-28T07:37:57;4.40;;;2.00;;
73779;SDS011;62093;37.614;15.072;2022-09-28T07:40:26;5.10;;;1.93;;
73779;SDS011;62093;37.614;15.072;2022-09-28T07:43:11;4.75;;;1.90;;
73779;SDS011;62093;37.614;15.072;2022-09-28T07:45:44;6.32;;;2.10;;
73779;SDS011;62093;37.614;15.072;2022-09-28T07:48:12;4.53;;;1.67;;
73779;SDS011;62093;37.614;15.072;2022-09-28T07:51:00;5.40;;;2.03;;
73779;SDS011;62093;37.614;15.072;2022-09-28T07:53:32;6.10;;;1.73;;
73779;SDS011;62093;37.614;15.072;2022-09-28T07:56:19;4.90;;;1.70;;
73779;SDS011;62093;37.614;15.072;2022-09-28T07:59:05;5.07;;;1.85;;
73779;SDS011;62093;37.614;15.072;2022-09-28T08:01:37;5.70;;;1.90;;
73779;SDS011;62093;37.614;15.072;2022-09-28T08:04:03;4.80;;;1.70;;
73779;SDS011;62093;37.614;15.072;2022-09-28T08:06:32;4.30;;;1.70;;
73779;SDS011;62093;37.614;15.072;2022-09-28T08:08:58;6.05;;;1.73;;
73779;SDS011;62093;37.614;15.072;2022-09-28T08:12:04;6.10;;;1.70;;
73779;SDS011;62093;37.614;15.072;2022-09-28T08:14:41;4.38;;;1.58;;
73779;SDS011;62093;37.614;15.072;2022-09-28T08:17:26;4.22;;;1.70;;
73779;SDS011;62093;37.614;15.072;2022-09-28T08:19:55;6.03;;;1.63;;
73779;SDS011;62093;37.614;15.072;2022-09-28T08:22:40;5.45;;;1.50;;
73779;SDS011;62093;37.614;15.072;2022-09-28T08:25:07;5.18;;;1.75;;
73779;SDS011;62093;37.614;15.072;2022-09-28T08:27:33;5.32;;;1.77;;
73779;SDS011;62093;37.614;15.072;2022-09-28T08:30:00;8.63;;;2.10;;
73779;SDS011;62093;37.614;15.072;2022-09-28T08:32:49;4.43;;;1.90;;
73779;SDS011;62093;37.614;15.072;2022-09-28T08:35:34;4.18;;;1.52;;
73779;SDS011;62093;37.614;15.072;2022-09-28T08:38:12;6.03;;;1.92;;
73779;SDS011;62093;37.614;15.072;2022-09-28T08:41:05;5.28;;;1.67;;
73779;SDS011;62093;37.614;15.072;2022-09-28T08:47:01;6.33;;;2.00;;
73779;SDS011;62093;37.614;15.072;2022-09-28T08:49:45;6.38;;;2.05;;
73779;SDS011;62093;37.614;15.072;2022-09-28T08:52:35;5.72;;;2.15;;
73779;SDS011;62093;37.614;15.072;2022-09-28T08:55:27;5.15;;;1.95;;
73779;SDS011;62093;37.614;15.072;2022-09-28T09:03:02;5.57;;;1.98;;
73779;SDS011;62093;37.614;15.072;2022-09-28T09:05:42;5.65;;;1.80;;
73779;SDS011;62093;37.614;15.072;2022-09-28T09:08:26;6.50;;;1.65;;
73779;SDS011;62093;37.614;15.072;2022-09-28T09:16:39;5.68;;;1.83;;
73779;SDS011;62093;37.614;15.072;2022-09-28T09:20:19;4.95;;;1.73;;
73779;SDS011;62093;37.614;15.072;2022-09-28T09:26:20;6.30;;;1.85;;
73779;SDS011;62093;37.614;15.072;2022-09-28T09:32:08;6.93;;;1.80;;
73779;SDS011;62093;37.614;15.072;2022-09-28T09:34:54;4.90;;;1.58;;
73779;SDS011;62093;37.614;15.072;2022-09-28T09:40:49;5.75;;;1.55;;
73779;SDS011;62093;37.614;15.072;2022-09-28T09:49:40;5.82;;;1.67;;
73779;SDS011;62093;37.614;15.072;2022-09-28T09:52:27;6.68;;;1.90;;
73779;SDS011;62093;37.614;15.072;2022-09-28T09:57:50;3.80;;;1.60;;
73779;SDS011;62093;37.614;15.072;2022-09-28T10:00:42;5.03;;;1.67;;
73779;SDS011;62093;37.614;15.072;2022-09-28T10:03:29;5.28;;;1.60;;
73779;SDS011;62093;37.614;15.072;2022-09-28T10:06:16;6.30;;;1.85;;
73779;SDS011;62093;37.614;15.072;2022-09-28T10:09:07;4.30;;;1.30;;
73779;SDS011;62093;37.614;15.072;2022-09-28T10:11:40;5.60;;;1.73;;
73779;SDS011;62093;37.614;15.072;2022-09-28T10:14:14;4.70;;;1.20;;
73779;SDS011;62093;37.614;15.072;2022-09-28T10:16:48;5.32;;;1.60;;
73779;SDS011;62093;37.614;15.072;2022-09-28T10:19:36;4.82;;;1.40;;
73779;SDS011;62093;37.614;15.072;2022-09-28T10:22:21;4.63;;;1.55;;
73779;SDS011;62093;37.614;15.072;2022-09-28T10:24:52;4.27;;;1.47;;
73779;SDS011;62093;37.614;15.072;2022-09-28T10:27:22;4.65;;;1.23;;
73779;SDS011;62093;37.614;15.072;2022-09-28T10:29:53;4.32;;;1.50;;
73779;SDS011;62093;37.614;15.072;2022-09-28T10:32:23;4.72;;;1.30;;
73779;SDS011;62093;37.614;15.072;2022-09-28T10:35:18;4.85;;;1.45;;
73779;SDS011;62093;37.614;15.072;2022-09-28T10:38:13;4.40;;;1.50;;
73779;SDS011;62093;37.614;15.072;2022-09-28T10:40:54;4.97;;;1.63;;
73779;SDS011;62093;37.614;15.072;2022-09-28T10:43:55;4.47;;;1.30;;
73779;SDS011;62093;37.614;15.072;2022-09-28T10:47:00;4.53;;;1.40;;
73779;SDS011;62093;37.614;15.072;2022-09-28T10:49:38;4.65;;;1.20;;
73779;SDS011;62093;37.614;15.072;2022-09-28T10:54:54;4.28;;;1.50;;
73779;SDS011;62093;37.614;15.072;2022-09-28T10:57:26;4.60;;;1.25;;
73779;SDS011;62093;37.614;15.072;2022-09-28T10:59:58;3.95;;;1.33;;
73779;SDS011;62093;37.614;15.072;2022-09-28T11:02:37;4.70;;;1.38;;
73779;SDS011;62093;37.614;15.072;2022-09-28T11:05:19;4.53;;;1.20;;
73779;SDS011;62093;37.614;15.072;2022-09-28T11:07:48;4.63;;;1.25;;
73779;SDS011;62093;37.614;15.072;2022-09-28T11:10:25;4.35;;;1.63;;
73779;SDS011;62093;37.614;15.072;2022-09-28T11:12:57;4.13;;;1.38;;
73779;SDS011;62093;37.614;15.072;2022-09-28T11:15:27;6.32;;;1.65;;
73779;SDS011;62093;37.614;15.072;2022-09-28T11:18:40;3.97;;;1.20;;
73779;SDS011;62093;37.614;15.072;2022-09-28T11:21:05;4.82;;;1.30;;
73779;SDS011;62093;37.614;15.072;2022-09-28T11:23:34;4.53;;;1.15;;
73779;SDS011;62093;37.614;15.072;2022-09-28T11:26:13;5.82;;;1.30;;
73779;SDS011;62093;37.614;15.072;2022-09-28T11:28:39;3.70;;;1.65;;
73779;SDS011;62093;37.614;15.072;2022-09-28T11:31:25;4.23;;;1.20;;
73779;SDS011;62093;37.614;15.072;2022-09-28T11:34:20;4.35;;;1.15;;
73779;SDS011;62093;37.614;15.072;2022-09-28T11:39:44;4.38;;;1.38;;
73779;SDS011;62093;37.614;15.072;2022-09-28T11:48:01;5.18;;;1.50;;
73779;SDS011;62093;37.614;15.072;2022-09-28T11:50:45;4.20;;;1.33;;
73779;SDS011;62093;37.614;15.072;2022-09-28T11:54:00;4.45;;;1.30;;
73779;SDS011;62093;37.614;15.072;2022-09-28T11:59:05;3.80;;;1.00;;
73779;SDS011;62093;37.614;15.072;2022-09-28T12:01:54;3.88;;;1.00;;
73779;SDS011;62093;37.614;15.072;2022-09-28T12:07:29;3.92;;;1.20;;
73779;SDS011;62093;37.614;15.072;2022-09-28T12:10:12;4.35;;;1.40;;
73779;SDS011;62093;37.614;15.072;2022-09-28T12:18:23;3.97;;;1.33;;
73779;SDS011;62093;37.614;15.072;2022-09-28T12:27:10;4.70;;;1.23;;
73779;SDS011;62093;37.614;15.072;2022-09-28T12:32:45;3.85;;;1.33;;
73779;SDS011;62093;37.614;15.072;2022-09-28T12:46:14;4.22;;;1.63;;
73779;SDS011;62093;37.614;15.072;2022-09-28T12:57:31;3.40;;;1.30;;
73779;SDS011;62093;37.614;15.072;2022-09-28T13:05:39;4.25;;;1.30;;
73779;SDS011;62093;37.614;15.072;2022-09-28T13:11:18;4.25;;;1.35;;
73779;SDS011;62093;37.614;15.072;2022-09-28T13:14:27;5.38;;;1.10;;
73779;SDS011;62093;37.614;15.072;2022-09-28T13:17:38;4.53;;;1.15;;
73779;SDS011;62093;37.614;15.072;2022-09-28T13:20:26;4.70;;;1.40;;
73779;SDS011;62093;37.614;15.072;2022-09-28T13:26:01;3.20;;;1.10;;
73779;SDS011;62093;37.614;15.072;2022-09-28T13:28:36;4.05;;;1.30;;
73779;SDS011;62093;37.614;15.072;2022-09-28T13:31:03;4.60;;;1.30;;
73779;SDS011;62093;37.614;15.072;2022-09-28T13:36:00;4.23;;;1.30;;
73779;SDS011;62093;37.614;15.072;2022-09-28T13:38:37;4.13;;;1.30;;
73779;SDS011;62093;37.614;15.072;2022-09-28T13:41:12;3.60;;;1.15;;
73779;SDS011;62093;37.614;15.072;2022-09-28T13:49:21;4.07;;;1.20;;
73779;SDS011;62093;37.614;15.072;2022-09-28T13:57:16;4.80;;;1.50;;
73779;SDS011;62093;37.614;15.072;2022-09-28T14:13:40;4.25;;;1.52;;
73779;SDS011;62093;37.614;15.072;2022-09-28T14:16:23;4.10;;;1.40;;
73779;SDS011;62093;37.614;15.072;2022-09-28T14:24:22;5.88;;;1.50;;
73779;SDS011;62093;37.614;15.072;2022-09-28T14:27:01;5.43;;;1.65;;
73779;SDS011;62093;37.614;15.072;2022-09-28T14:29:44;6.27;;;2.50;;
73779;SDS011;62093;37.614;15.072;2022-09-28T14:40:20;4.93;;;1.30;;
73779;SDS011;62093;37.614;15.072;2022-09-28T14:43:19;3.47;;;1.27;;
73779;SDS011;62093;37.614;15.072;2022-09-28T14:46:53;4.03;;;1.30;;
73779;SDS011;62093;37.614;15.072;2022-09-28T14:59:15;4.63;;;1.70;;
73779;SDS011;62093;37.614;15.072;2022-09-28T15:02:06;5.85;;;1.70;;
73779;SDS011;62093;37.614;15.072;2022-09-28T15:04:56;5.57;;;1.60;;
73779;SDS011;62093;37.614;15.072;2022-09-28T15:07:28;5.38;;;2.20;;
73779;SDS011;62093;37.614;15.072;2022-09-28T15:10:29;5.10;;;1.80;;
73779;SDS011;62093;37.614;15.072;2022-09-28T15:12:56;4.60;;;1.50;;
73779;SDS011;62093;37.614;15.072;2022-09-28T15:20:47;5.25;;;2.22;;
73779;SDS011;62093;37.614;15.072;2022-09-28T15:23:34;6.37;;;2.07;;
73779;SDS011;62093;37.614;15.072;2022-09-28T15:26:06;6.07;;;1.83;;
73779;SDS011;62093;37.614;15.072;2022-09-28T15:28:45;6.13;;;2.08;;
73779;SDS011;62093;37.614;15.072;2022-09-28T15:31:16;5.07;;;1.60;;
73779;SDS011;62093;37.614;15.072;2022-09-28T15:33:44;7.90;;;2.17;;
73779;SDS011;62093;37.614;15.072;2022-09-28T15:36:30;7.80;;;2.13;;
73779;SDS011;62093;37.614;15.072;2022-09-28T15:39:04;6.15;;;2.10;;
73779;SDS011;62093;37.614;15.072;2022-09-28T15:41:36;5.53;;;1.80;;
73779;SDS011;62093;37.614;15.072;2022-09-28T15:46:37;6.13;;;2.15;;
73779;SDS011;62093;37.614;15.072;2022-09-28T15:49:04;7.37;;;2.00;;
73779;SDS011;62093;37.614;15.072;2022-09-28T15:51:47;6.85;;;2.00;;
73779;SDS011;62093;37.614;15.072;2022-09-28T15:54:27;5.55;;;2.00;;
73779;SDS011;62093;37.614;15.072;2022-09-28T15:57:00;4.78;;;1.80;;
73779;SDS011;62093;37.614;15.072;2022-09-28T15:59:29;5.60;;;1.70;;
73779;SDS011;62093;37.614;15.072;2022-09-28T16:02:16;5.53;;;2.17;;
73779;SDS011;62093;37.614;15.072;2022-09-28T16:04:49;7.18;;;1.95;;
73779;SDS011;62093;37.614;15.072;2022-09-28T16:07:22;5.18;;;1.92;;
73779;SDS011;62093;37.614;15.072;2022-09-28T16:12:19;6.05;;;1.85;;
73779;SDS011;62093;37.614;15.072;2022-09-28T16:14:52;7.23;;;2.17;;
73779;SDS011;62093;37.614;15.072;2022-09-28T16:17:27;6.68;;;2.13;;
73779;SDS011;62093;37.614;15.072;2022-09-28T16:20:00;8.45;;;2.63;;
73779;SDS011;62093;37.614;15.072;2022-09-28T16:22:43;5.82;;;1.98;;
73779;SDS011;62093;37.614;15.072;2022-09-28T16:25:19;4.68;;;1.70;;
73779;SDS011;62093;37.614;15.072;2022-09-28T16:27:49;6.00;;;2.10;;
73779;SDS011;62093;37.614;15.072;2022-09-28T16:30:19;7.55;;;2.60;;
73779;SDS011;62093;37.614;15.072;2022-09-28T16:35:27;7.78;;;2.63;;
73779;SDS011;62093;37.614;15.072;2022-09-28T16:38:14;7.07;;;2.30;;
73779;SDS011;62093;37.614;15.072;2022-09-28T16:40:48;6.53;;;2.83;;
73779;SDS011;62093;37.614;15.072;2022-09-28T16:43:26;5.97;;;3.17;;
73779;SDS011;62093;37.614;15.072;2022-09-28T16:45:57;8.63;;;3.80;;
73779;SDS011;62093;37.614;15.072;2022-09-28T16:48:29;7.57;;;2.60;;
73779;SDS011;62093;37.614;15.072;2022-09-28T16:50:57;6.88;;;2.53;;
73779;SDS011;62093;37.614;15.072;2022-09-28T16:53:23;6.47;;;3.10;;
73779;SDS011;62093;37.614;15.072;2022-09-28T16:56:09;8.68;;;3.58;;
73779;SDS011;62093;37.614;15.072;2022-09-28T16:58:36;6.70;;;2.90;;
73779;SDS011;62093;37.614;15.072;2022-09-28T17:01:03;6.07;;;3.28;;
73779;SDS011;62093;37.614;15.072;2022-09-28T17:03:33;9.20;;;3.20;;
73779;SDS011;62093;37.614;15.072;2022-09-28T17:06:03;7.27;;;2.50;;
73779;SDS011;62093;37.614;15.072;2022-09-28T17:08:32;6.95;;;2.92;;
73779;SDS011;62093;37.614;15.072;2022-09-28T17:11:00;6.18;;;2.85;;
73779;SDS011;62093;37.614;15.072;2022-09-28T17:13:30;8.43;;;2.60;;
73779;SDS011;62093;37.614;15.072;2022-09-28T17:15:58;7.72;;;3.20;;
73779;SDS011;62093;37.614;15.072;2022-09-28T17:18:26;9.27;;;2.70;;
73779;SDS011;62093;37.614;15.072;2022-09-28T17:20:56;6.07;;;2.90;;
73779;SDS011;62093;37.614;15.072;2022-09-28T17:23:24;8.85;;;2.83;;
73779;SDS011;62093;37.614;15.072;2022-09-28T17:25:50;8.43;;;2.67;;
73779;SDS011;62093;37.614;15.072;2022-09-28T17:28:19;6.72;;;2.67;;
73779;SDS011;62093;37.614;15.072;2022-09-28T17:30:48;7.53;;;2.67;;
73779;SDS011;62093;37.614;15.072;2022-09-28T17:33:15;7.07;;;2.80;;
73779;SDS011;62093;37.614;15.072;2022-09-28T17:35:41;7.93;;;2.67;;
73779;SDS011;62093;37.614;15.072;2022-09-28T17:38:10;9.20;;;2.92;;
73779;SDS011;62093;37.614;15.072;2022-09-28T17:40:37;11.05;;;2.70;;
73779;SDS011;62093;37.614;15.072;2022-09-28T17:43:04;7.63;;;2.63;;
73779;SDS011;62093;37.614;15.072;2022-09-28T17:45:31;8.70;;;2.85;;
73779;SDS011;62093;37.614;15.072;2022-09-28T17:48:01;6.60;;;2.53;;
73779;SDS011;62093;37.614;15.072;2022-09-28T17:50:28;9.27;;;2.60;;
73779;SDS011;62093;37.614;15.072;2022-09-28T17:52:58;7.63;;;2.90;;
73779;SDS011;62093;37.614;15.072;2022-09-28T17:55:29;7.07;;;2.80;;
73779;SDS011;62093;37.614;15.072;2022-09-28T17:58:10;9.40;;;2.78;;
73779;SDS011;62093;37.614;15.072;2022-09-28T18:00:39;7.13;;;2.90;;
73779;SDS011;62093;37.614;15.072;2022-09-28T18:03:08;7.78;;;2.90;;
73779;SDS011;62093;37.614;15.072;2022-09-28T18:05:38;9.02;;;3.20;;
73779;SDS011;62093;37.614;15.072;2022-09-28T18:08:04;7.10;;;2.50;;
73779;SDS011;62093;37.614;15.072;2022-09-28T18:10:30;7.97;;;3.10;;
73779;SDS011;62093;37.614;15.072;2022-09-28T18:12:56;9.43;;;2.72;;
73779;SDS011;62093;37.614;15.072;2022-09-28T18:15:22;8.57;;;2.83;;
73779;SDS011;62093;37.614;15.072;2022-09-28T18:17:48;8.52;;;2.85;;
73779;SDS011;62093;37.614;15.072;2022-09-28T18:20:14;11.83;;;3.40;;
73779;SDS011;62093;37.614;15.072;2022-09-28T18:22:41;8.52;;;3.35;;
73779;SDS011;62093;37.614;15.072;2022-09-28T18:25:07;9.68;;;3.25;;
73779;SDS011;62093;37.614;15.072;2022-09-28T18:27:33;7.00;;;3.20;;
73779;SDS011;62093;37.614;15.072;2022-09-28T18:29:59;8.60;;;3.50;;
73779;SDS011;62093;37.614;15.072;2022-09-28T18:32:26;9.15;;;3.70;;
73779;SDS011;62093;37.614;15.072;2022-09-28T18:34:52;8.65;;;3.58;;